Swansboro, NC (28584)

4:21 PM EDT on August 04, 2015 (GMT -0400)
Marsh Harbor | | Change Station
CLOSE
Current Station
Personal Weather Station
Location: Cedar Point, NC
Elevation: 12 ft
Nearby Weather Stations

Elev 12 ft 34.69 °N, 77.08 °W | Updated 47 seconds ago

Overcast
Overcast
80.0 °F
Feels Like 84 °F
N
3.0
Wind Variable Wind from WSW
Gusts 4.0 mph

Today
High -- | Low -- °F
--% Chance of Precip.
Yesterday
High -- | Low -- °F
Precip. -- in
6:20 AM 8:08 PM
Waning Gibbous, 75% visible
Pressure 29.98 in
Visibility 10.0 miles
Clouds Scattered Clouds 2500 ft
Mostly Cloudy 3600 ft
Overcast 9500 ft
Heat Index 84 °F
Dew Point 74 °F
Humidity 81%
Rainfall 0.17 in
Snow Depth Not available.
UV 2 out of 12
Pollen 1.30 out of 12
Air Quality Not available.
Flu Activity Not available.
SPECI KNJM 042006Z 21009G17KT 10SM TS SCT025 BKN036 OVC095 28/23 A2998 RMK AO2 TSB00 T02830228

More Conditions Fewer Conditions

Pressure 29.98 in
Visibility 10.0 miles
Clouds Scattered Clouds 2500 ft
Mostly Cloudy 3600 ft
Overcast 9500 ft
Heat Index 84 °F
Dew Point 74 °F
Humidity 81%
Rainfall 0.17 in
Snow Depth Not available.
UV 2 out of 12
Pollen 1.30 out of 12
Air Quality Not available.
Flu Activity Not available.
SPECI KNJM 042006Z 21009G17KT 10SM TS SCT025 BKN036 OVC095 28/23 A2998 RMK AO2 TSB00 T02830228

More Conditions Fewer Conditions

10-Day Weather Forecast

×

Almanac

Astronomy

Aug. 04, 2015 Rise Set
Actual Time
Civil Twilight
Nautical Twilight
Astronomical Twilight
Moon
Length of Visible Light
Length of Day
Tomorrow will be .
, % of the Moon is Illuminated

Today's Extremes

State Highs State Lows

Community

WunderPhotos

Upload Photos

1,843,963 photos uploaded!

WunderBlogs® & News

Nearby

Air Quality

  Air Quality AQ Index Pollutant
Not available.

Snow Depth

Station Depth Elevation

Earthquake Activity

City Distance Mag. Time & Date
Minimum magnitude displayed is 2.5.

Coastal Water Temperatures

Place Temperature

Stations

Nearby Weather Stations

Station Location Temp. Windchill Dew Point Humidity Wind Precip. Elev Updated Type